Time;durP1;ratioP1;P1;durP2;ratioP2;P2;SDS_P1;SDS_P2;PMS_P1;PMS_P2;Temp;Humidity;BMP_temperature;BMP_pressure;BME280_temperature;BME280_humidity;BME280_pressure;Samples;Min_cycle;Max_cycle;Signal;HPM_P1;HPM_P2
2021/12/10 00:01:29;;;;;;;49.47;22.70;;;;;;;3.27;100.00;96468.69;5002166;28;20068;-89
2021/12/10 00:07:55;;;;;;;48.15;21.65;;;;;;;3.31;100.00;96498.47;5036210;28;20080;-88
2021/12/10 05:15:05;;;;;;;41.90;20.15;;;;;;;3.51;100.00;96554.66;6092466;23;21049;31
2021/12/10 05:17:33;;;;;;;45.97;20.63;;;;;;;3.58;100.00;96558.72;4906022;29;20059;-87
2021/12/10 05:20:00;;;;;;;1.48;1.38;;;;;;;3.45;100.00;96541.75;4902711;29;20442;-89
2021/12/10 05:22:27;;;;;;;2.58;2.25;;;;;;;3.49;100.00;96553.91;4919332;29;20038;-88
2021/12/10 05:24:53;;;;;;;3.97;3.15;;;;;;;3.51;100.00;96544.09;4910623;29;20471;-89
2021/12/10 05:27:19;;;;;;;8.18;4.15;;;;;;;3.56;100.00;96555.31;4911179;29;20027;-87
2021/12/10 05:29:44;;;;;;;11.93;3.53;;;;;;;3.55;100.00;96550.09;4916861;29;20507;-88
2021/12/10 05:32:11;;;;;;;5.70;3.42;;;;;;;3.51;100.00;96541.44;4931513;29;20058;-89
2021/12/10 05:34:40;;;;;;;6.35;2.08;;;;;;;3.38;100.00;96535.09;4914474;29;20388;-88
2021/12/10 05:37:06;;;;;;;3.83;3.42;;;;;;;3.34;100.00;96544.09;4896555;29;20039;-88
2021/12/10 05:39:32;;;;;;;5.25;2.33;;;;;;;3.32;100.00;96556.53;4902080;29;20415;-87
2021/12/10 05:42:00;;;;;;;5.13;2.58;;;;;;;3.38;100.00;96555.38;4888886;29;20028;-88
2021/12/10 05:44:27;;;;;;;3.63;3.33;;;;;;;3.35;100.00;96561.66;4914072;29;20066;-88
2021/12/10 05:46:52;;;;;;;2.38;2.20;;;;;;;3.33;100.00;96558.22;4898189;29;20494;-87
2021/12/10 05:49:18;;;;;;;2.78;2.58;;;;;;;3.22;100.00;96549.97;4903741;29;20031;-87
2021/12/10 05:51:44;;;;;;;18.10;5.72;;;;;;;3.31;100.00;96565.38;4901118;29;20046;-87
2021/12/10 05:54:10;;;;;;;8.48;2.95;;;;;;;3.34;100.00;96554.66;4914021;29;20116;-87
2021/12/10 05:56:36;;;;;;;6.95;5.57;;;;;;;3.40;100.00;96543.78;4898861;29;20122;-85
2021/12/10 05:59:04;;;;;;;5.35;4.80;;;;;;;3.22;100.00;96540.28;4903187;29;20028;-87
2021/12/10 06:01:30;;;;;;;1.67;1.60;;;;;;;3.28;100.00;96558.47;4903220;29;20027;-87
2021/12/10 06:03:55;;;;;;;5.47;4.00;;;;;;;3.29;100.00;96546.13;4902859;29;20043;-87
2021/12/10 06:06:25;;;;;;;3.60;3.30;;;;;;;3.19;100.00;96544.84;4902976;29;20024;-87
2021/12/10 06:08:51;;;;;;;2.15;1.85;;;;;;;3.27;100.00;96566.44;4900435;29;20043;-86
2021/12/10 06:11:21;;;;;;;3.20;2.97;;;;;;;3.27;100.00;96572.59;4926245;29;20027;-86
2021/12/10 06:13:46;;;;;;;1.83;1.05;;;;;;;3.29;100.00;96561.97;4902377;29;20035;-87
2021/12/10 06:16:13;;;;;;;9.13;2.60;;;;;;;3.43;100.00;96587.69;4905932;29;20074;-88
2021/12/10 06:18:39;;;;;;;2.72;2.53;;;;;;;3.27;100.00;96584.94;4912233;29;20051;-88
2021/12/10 06:21:05;;;;;;;3.75;2.30;;;;;;;3.32;100.00;96582.97;4916312;29;20028;-87
2021/12/10 06:23:31;;;;;;;6.93;3.95;;;;;;;3.34;100.00;96570.50;4922984;29;20122;-87
2021/12/10 06:25:57;;;;;;;1.60;1.50;;;;;;;3.28;100.00;96566.41;4904906;29;20130;-87
2021/12/10 06:28:23;;;;;;;3.08;2.55;;;;;;;3.31;100.00;96559.22;4921983;29;20032;-87
2021/12/10 06:30:50;;;;;;;5.68;2.80;;;;;;;3.42;100.00;96570.13;4902456;29;20036;-87
2021/12/10 06:33:19;;;;;;;3.17;2.58;;;;;;;3.44;100.00;96571.78;4933426;29;20032;-86
2021/12/10 06:35:47;;;;;;;3.90;2.78;;;;;;;3.45;100.00;96565.53;4918521;29;20110;-87
2021/12/10 06:38:13;;;;;;;10.48;7.72;;;;;;;3.53;100.00;96552.81;4917909;29;20027;-88
2021/12/10 06:40:41;;;;;;;6.13;4.43;;;;;;;3.55;100.00;96552.72;4914726;29;20040;-87
2021/12/10 06:43:07;;;;;;;7.55;4.57;;;;;;;3.51;100.00;96543.22;4926534;29;20507;-88
2021/12/10 06:45:34;;;;;;;9.27;6.90;;;;;;;3.61;100.00;96553.28;4931221;29;20059;-88
2021/12/10 06:48:03;;;;;;;7.55;5.47;;;;;;;3.59;100.00;96556.94;4917999;29;20083;-88
2021/12/10 06:50:33;;;;;;;5.38;3.65;;;;;;;3.57;100.00;96545.59;4916111;29;20416;-87
2021/12/10 06:52:59;;;;;;;6.22;4.10;;;;;;;3.70;100.00;96567.81;4918516;29;20035;-87
2021/12/10 06:55:27;;;;;;;14.10;3.97;;;;;;;3.62;100.00;96560.28;4921551;29;20042;-87
2021/12/10 06:57:53;;;;;;;10.73;5.88;;;;;;;3.66;100.00;96576.84;4904360;29;20039;-79
2021/12/10 07:00:23;;;;;;;14.27;5.22;;;;;;;3.75;100.00;96566.63;4921897;29;20035;-87
2021/12/10 07:02:49;;;;;;;6.22;5.60;;;;;;;3.77;100.00;96554.22;4901466;29;20119;-78
2021/12/10 07:05:16;;;;;;;4.95;4.45;;;;;;;3.73;100.00;96530.63;4896921;29;20487;-79
2021/12/10 07:07:41;;;;;;;3.17;2.80;;;;;;;3.80;100.00;96543.47;4895921;29;20095;-79
2021/12/10 07:10:08;;;;;;;12.20;5.18;;;;;;;3.92;100.00;96527.91;4902136;29;20047;-80
2021/12/10 07:12:35;;;;;;;5.35;4.85;;;;;;;3.76;100.00;96510.19;4904358;29;20075;-86
2021/12/10 07:15:02;;;;;;;7.85;5.38;;;;;;;3.82;100.00;96533.66;4904165;29;20082;-83
2021/12/10 07:17:29;;;;;;;7.25;5.25;;;;;;;3.65;100.00;96528.41;4948648;28;20047;-79
2021/12/10 07:19:55;;;;;;;4.35;2.90;;;;;;;3.67;100.00;96513.31;4958792;28;20509;-77
2021/12/10 07:22:20;;;;;;;4.60;3.30;;;;;;;3.82;100.00;96514.28;4945444;29;20030;-78
2021/12/10 07:24:46;;;;;;;5.32;4.10;;;;;;;3.90;100.00;96521.84;4953996;29;20533;-78
2021/12/10 07:27:12;;;;;;;5.72;4.55;;;;;;;3.83;100.00;96532.75;4928461;29;20030;-78
2021/12/10 07:29:41;;;;;;;2.70;2.42;;;;;;;3.83;100.00;96543.31;4969924;28;20027;-78
2021/12/10 07:32:07;;;;;;;3.95;3.50;;;;;;;3.82;100.00;96551.31;4937047;29;20479;-79
2021/12/10 07:34:33;;;;;;;5.85;3.90;;;;;;;3.81;100.00;96549.63;4937635;29;20512;-78
2021/12/10 07:36:58;;;;;;;7.03;3.05;;;;;;;3.67;100.00;96546.81;4929520;29;20182;-78
2021/12/10 07:39:24;;;;;;;4.72;2.80;;;;;;;3.56;100.00;96541.22;4953187;29;20398;-77
2021/12/10 07:41:51;;;;;;;2.88;2.55;;;;;;;3.68;100.00;96535.31;4935376;28;20042;-78
2021/12/10 07:44:17;;;;;;;3.05;2.17;;;;;;;3.81;100.00;96533.75;4935309;29;20024;-80
2021/12/10 07:46:42;;;;;;;4.03;3.65;;;;;;;4.24;100.00;96542.94;4937485;29;20027;-77
2021/12/10 07:49:15;;;;;;;5.15;4.38;;;;;;;4.29;100.00;96551.50;4951059;28;20082;-78
2021/12/10 07:51:44;;;;;;;2.72;2.08;;;;;;;4.37;100.00;96557.22;4927920;29;20039;-78
2021/12/10 07:54:10;;;;;;;2.58;2.22;;;;;;;4.41;100.00;96545.53;4937201;29;20058;-78
2021/12/10 07:56:36;;;;;;;4.40;2.55;;;;;;;4.36;100.00;96531.72;4953008;29;20057;-77
2021/12/10 07:59:02;;;;;;;2.17;1.98;;;;;;;4.31;100.00;96544.31;4920955;29;20027;-77
2021/12/10 08:01:29;;;;;;;11.20;2.80;;;;;;;4.34;100.00;96544.16;4937161;29;20106;-78
2021/12/10 08:03:57;;;;;;;4.10;2.97;;;;;;;4.33;100.00;96553.91;4933336;29;20035;-78
2021/12/10 08:06:25;;;;;;;1.38;1.27;;;;;;;4.51;100.00;96543.25;4920959;29;20446;-78
2021/12/10 08:08:50;;;;;;;3.47;3.05;;;;;;;4.36;100.00;96542.28;4921149;29;20118;-78
2021/12/10 08:11:17;;;;;;;1.05;1.05;;;;;;;4.35;100.00;96541.44;4933282;29;20059;-78
2021/12/10 08:13:42;;;;;;;6.65;2.08;;;;;;;4.46;100.00;96543.47;4935141;29;20031;-77
2021/12/10 08:16:08;;;;;;;3.15;2.88;;;;;;;4.63;100.00;96539.94;4920350;29;20046;-78
2021/12/10 08:18:34;;;;;;;3.25;2.08;;;;;;;4.59;100.00;96549.84;4936770;29;20112;-79
2021/12/10 08:21:00;;;;;;;4.75;2.20;;;;;;;4.84;100.00;96552.84;4940476;29;20034;-77
2021/12/10 08:23:26;;;;;;;4.28;2.30;;;;;;;5.23;100.00;96551.56;4921277;29;20031;-79
2021/12/10 08:25:52;;;;;;;1.80;1.70;;;;;;;5.36;100.00;96564.03;4936688;29;20086;-78
2021/12/10 08:28:23;;;;;;;1.60;1.50;;;;;;;5.54;100.00;96561.28;4952510;28;20015;-78
2021/12/10 08:30:50;;;;;;;2.63;2.03;;;;;;;5.72;100.00;96550.41;4933201;29;20032;-78
2021/12/10 08:33:17;;;;;;;1.52;1.42;;;;;;;5.63;100.00;96540.34;4936823;29;20505;-79
2021/12/10 08:35:48;;;;;;;6.63;1.77;;;;;;;5.63;100.00;96548.31;4952743;29;20035;-79
2021/12/10 08:38:14;;;;;;;6.32;3.97;;;;;;;5.53;100.00;96547.16;4925311;29;20031;-79
2021/12/10 08:41:02;;;;;;;2.97;2.55;;;;;;;5.68;100.00;96543.59;4936430;29;20405;-78
2021/12/10 08:43:29;;;;;;;2.17;2.03;;;;;;;5.80;100.00;96542.03;4942483;29;20051;-79
2021/12/10 08:45:55;;;;;;;2.95;2.47;;;;;;;5.58;100.00;96530.97;4933118;29;20035;-78
2021/12/10 08:48:23;;;;;;;2.13;1.92;;;;;;;5.58;100.00;96526.50;4933758;29;20044;-79
2021/12/10 08:50:49;;;;;;;3.45;2.47;;;;;;;5.59;100.00;96532.69;4936258;29;20043;-79
2021/12/10 08:53:15;;;;;;;2.35;2.05;;;;;;;5.70;100.00;96520.47;4932943;29;20120;-78
2021/12/10 08:55:44;;;;;;;1.98;1.67;;;;;;;5.79;100.00;96535.00;4935436;29;20034;-79
2021/12/10 08:58:09;;;;;;;5.82;3.40;;;;;;;5.79;100.00;96535.84;4920253;29;20035;-78
2021/12/10 09:00:37;;;;;;;3.47;3.17;;;;;;;5.91;100.00;96523.69;4920310;29;20073;-78
2021/12/10 09:03:04;;;;;;;3.63;2.90;;;;;;;6.03;100.00;96504.38;4936340;29;20058;-79
2021/12/10 09:05:30;;;;;;;11.23;3.45;;;;;;;5.99;100.00;96486.94;4919916;29;20375;-78
2021/12/10 09:07:55;;;;;;;3.28;2.45;;;;;;;5.85;100.00;96493.06;4938559;29;20011;-79
2021/12/10 09:10:24;;;;;;;5.25;3.92;;;;;;;5.96;100.00;96495.09;4940804;28;20101;-79
2021/12/10 09:12:51;;;;;;;4.63;3.10;;;;;;;5.86;100.00;96494.78;4920210;29;20027;-79
2021/12/10 09:15:20;;;;;;;8.38;4.75;;;;;;;5.71;100.00;96500.97;4935669;29;20030;-78
2021/12/10 09:17:47;;;;;;;5.65;3.63;;;;;;;5.84;100.00;96496.66;4929157;29;20567;-79
2021/12/10 09:20:17;;;;;;;7.25;4.78;;;;;;;5.86;100.00;96478.88;4897496;29;20403;-79
2021/12/10 09:22:43;;;;;;;3.45;3.15;;;;;;;5.86;100.00;96488.63;4929497;29;20051;-79
2021/12/10 09:25:10;;;;;;;4.50;3.42;;;;;;;5.86;100.00;96478.00;4900710;29;20035;-79
2021/12/10 09:27:36;;;;;;;3.75;3.45;;;;;;;5.86;100.00;96468.25;4896364;29;20047;-78
2021/12/10 09:30:05;;;;;;;9.18;4.88;;;;;;;5.79;100.00;96466.88;4897686;29;20032;-77
2021/12/10 09:32:31;;;;;;;13.40;4.85;;;;;;;5.81;100.00;96459.69;4916384;29;20046;-79
2021/12/10 09:35:02;;;;;;;9.45;4.72;;;;;;;5.70;100.00;96467.44;4897695;29;20032;-79
2021/12/10 09:37:29;;;;;;;3.03;2.53;;;;;;;5.79;100.00;96501.38;4897813;29;20095;-79
2021/12/10 09:39:54;;;;;;;6.22;4.43;;;;;;;6.01;100.00;96503.63;4903232;29;20032;-79
2021/12/10 09:42:22;;;;;;;7.03;5.07;;;;;;;6.01;100.00;96477.06;4897402;29;20035;-78
2021/12/10 09:44:50;;;;;;;5.22;4.13;;;;;;;5.96;100.00;96489.78;4916590;29;20491;-79
2021/12/10 09:47:16;;;;;;;7.78;3.95;;;;;;;6.08;100.00;96502.31;4897622;29;20027;-79
2021/12/10 09:49:43;;;;;;;7.75;4.70;;;;;;;6.13;100.00;96494.91;4913270;29;20077;-78
2021/12/10 09:52:09;;;;;;;10.32;5.45;;;;;;;6.14;100.00;96498.41;4932469;29;20032;-78
2021/12/10 09:54:36;;;;;;;8.07;4.47;;;;;;;6.14;100.00;96482.50;4925122;29;20122;-79
2021/12/10 09:57:10;;;;;;;8.93;3.75;;;;;;;6.14;100.00;96483.34;4901502;29;20163;-78
2021/12/10 09:59:37;;;;;;;6.35;3.97;;;;;;;6.47;100.00;96483.91;4916742;29;20036;-78
2021/12/10 10:02:05;;;;;;;4.55;4.05;;;;;;;6.48;100.00;96463.50;4936160;29;20019;-79
2021/12/10 10:04:35;;;;;;;11.82;5.20;;;;;;;6.63;100.00;96457.22;4936904;29;20032;-79
2021/12/10 10:07:08;;;;;;;6.35;2.97;;;;;;;6.94;100.00;96464.94;4911150;29;20597;-78
2021/12/10 10:09:34;;;;;;;5.40;3.90;;;;;;;7.00;100.00;96448.59;4911078;29;20070;-79
2021/12/10 10:12:12;;;;;;;7.22;4.30;;;;;;;6.99;100.00;96457.50;4925245;29;20127;-78
2021/12/10 10:14:38;;;;;;;3.75;3.17;;;;;;;7.24;100.00;96454.06;4916734;29;20032;-79
2021/12/10 10:17:05;;;;;;;3.72;2.67;;;;;;;7.41;99.58;96460.94;4916664;29;20475;-79
2021/12/10 10:19:32;;;;;;;8.85;6.13;;;;;;;7.44;99.48;96450.09;4916734;29;20127;-80
2021/12/10 10:21:58;;;;;;;4.57;3.67;;;;;;;7.52;98.21;96435.31;4918482;29;20415;-79
2021/12/10 10:24:26;;;;;;;9.63;3.92;;;;;;;7.45;98.34;96411.88;4919893;29;20141;-79
2021/12/10 10:27:01;;;;;;;4.50;3.25;;;;;;;7.19;100.00;96412.81;4901507;29;20039;-79
2021/12/10 10:29:32;;;;;;;8.05;4.30;;;;;;;6.99;99.92;96417.63;4916565;29;20556;-79
2021/12/10 10:32:07;;;;;;;5.47;3.50;;;;;;;7.03;100.00;96416.47;4933778;29;20403;-79
2021/12/10 10:34:33;;;;;;;6.00;4.32;;;;;;;6.96;100.00;96403.69;4916644;29;20415;-79
2021/12/10 10:36:59;;;;;;;7.88;5.03;;;;;;;6.90;100.00;96399.63;4919025;29;20028;-79
2021/12/10 10:39:32;;;;;;;7.10;3.75;;;;;;;6.99;100.00;96393.69;4919734;29;20032;-79
2021/12/10 10:41:58;;;;;;;7.55;4.10;;;;;;;7.17;100.00;96388.13;4902600;29;20039;-79
2021/12/10 10:44:24;;;;;;;6.22;4.47;;;;;;;7.49;100.00;96394.75;4919630;29;20394;-78
2021/12/10 10:46:54;;;;;;;9.13;3.55;;;;;;;7.51;100.00;96396.34;4903269;29;20075;-78
2021/12/10 10:49:53;;;;;;;5.25;4.18;;;;;;;7.28;100.00;96381.13;4916273;29;20044;-79
2021/12/10 10:52:35;;;;;;;6.18;4.93;;;;;;;7.51;100.00;96395.50;4904567;29;20419;-79
2021/12/10 10:55:12;;;;;;;6.20;4.50;;;;;;;7.59;100.00;96393.19;4917396;29;20067;-79
2021/12/10 10:57:47;;;;;;;11.27;4.07;;;;;;;7.74;100.00;96384.16;4919147;29;20040;-79
2021/12/10 11:00:32;;;;;;;11.30;7.03;;;;;;;7.57;100.00;96385.28;4936604;29;20090;-79
2021/12/10 11:03:04;;;;;;;9.32;5.70;;;;;;;8.98;95.35;96398.31;4919140;29;20023;-79
2021/12/10 11:05:30;;;;;;;10.68;7.30;;;;;;;9.66;86.18;96385.06;4934662;29;20028;-79
2021/12/10 11:07:59;;;;;;;12.00;5.03;;;;;;;9.09;85.54;96388.53;4930969;29;20389;-79
2021/12/10 11:10:38;;;;;;;14.98;7.82;;;;;;;8.69;89.04;96381.78;4915569;29;20043;-80
2021/12/10 11:13:23;;;;;;;9.75;6.78;;;;;;;8.23;92.83;96375.34;4915802;29;20043;-78
2021/12/10 11:16:04;;;;;;;14.05;7.65;;;;;;;8.37;94.58;96361.91;4919872;29;20028;-79
2021/12/10 11:18:41;;;;;;;8.75;6.20;;;;;;;8.04;95.71;96363.34;4953710;28;20035;-80
2021/12/10 11:21:06;;;;;;;10.57;6.20;;;;;;;8.24;95.19;96364.63;4954064;29;20055;-80
2021/12/10 11:23:33;;;;;;;54.88;29.65;;;;;;;8.29;95.09;96353.66;4921946;29;20562;-79
2021/12/10 11:26:00;;;;;;;20.02;11.32;;;;;;;8.24;97.16;96361.09;4922007;29;20478;-80
2021/12/10 11:28:30;;;;;;;15.48;8.98;;;;;;;8.53;96.21;96359.84;4922335;29;20099;-79
2021/12/10 11:31:21;;;;;;;8.60;6.20;;;;;;;8.08;97.46;96354.19;4922173;29;20031;-80
2021/12/10 11:33:49;;;;;;;10.32;5.90;;;;;;;8.07;99.68;96351.63;4936815;29;20448;-78
2021/12/10 11:36:18;;;;;;;16.55;8.15;;;;;;;8.13;99.39;96351.19;4921869;29;20118;-79
2021/12/10 11:38:46;;;;;;;15.35;6.45;;;;;;;8.00;99.31;96337.91;4921637;29;20035;-80
2021/12/10 11:41:15;;;;;;;19.08;8.63;;;;;;;7.84;100.00;96336.44;4953416;29;20429;-79
2021/12/10 11:46:44;;;;;;;19.48;7.93;;;;;;;7.99;100.00;96349.53;4954708;29;20031;-81
2021/12/10 11:49:15;;;;;;;8.18;5.55;;;;;;;8.02;98.65;96344.00;4937511;29;20479;-81
2021/12/10 11:51:45;;;;;;;11.57;8.10;;;;;;;7.70;100.00;96347.19;4921564;29;20065;-80
2021/12/10 11:54:20;;;;;;;11.63;6.68;;;;;;;7.94;100.00;96354.31;4937246;29;20090;-81
2021/12/10 11:56:54;;;;;;;6.88;4.75;;;;;;;8.13;99.96;96368.03;4936999;29;20050;-80
2021/12/10 11:59:29;;;;;;;7.85;7.05;;;;;;;8.23;98.49;96348.72;4944552;29;20110;-80
2021/12/10 12:02:03;;;;;;;10.27;5.38;;;;;;;8.11;98.45;96361.13;4921539;29;20031;-81
2021/12/10 12:04:29;;;;;;;12.48;5.25;;;;;;;7.88;100.00;96362.72;4937103;29;20526;-81
2021/12/10 12:07:13;;;;;;;9.07;5.50;;;;;;;7.89;100.00;96368.91;4937201;29;20023;-80
2021/12/10 12:09:41;;;;;;;9.05;5.32;;;;;;;7.72;100.00;96372.72;4942416;28;20387;-80
2021/12/10 12:12:13;;;;;;;10.10;3.45;;;;;;;7.26;100.00;96366.22;4921046;29;20113;-80
2021/12/10 12:14:44;;;;;;;3.10;2.13;;;;;;;7.19;100.00;96348.97;4937300;29;20099;-80
2021/12/10 12:17:31;;;;;;;7.53;4.22;;;;;;;7.31;100.00;96372.09;4937549;29;20055;-80
2021/12/10 12:19:57;;;;;;;3.67;2.25;;;;;;;7.42;100.00;96372.19;4930756;29;20095;-81
2021/12/10 12:25:31;;;;;;;4.40;2.42;;;;;;;7.64;100.00;96349.34;4947264;29;20095;-81
2021/12/10 12:28:01;;;;;;;4.18;3.08;;;;;;;7.71;100.00;96331.13;4932104;29;20034;-80
2021/12/10 12:30:27;;;;;;;2.55;2.35;;;;;;;7.74;100.00;96349.56;4968692;28;20027;-81
2021/12/10 12:32:53;;;;;;;6.45;2.35;;;;;;;7.75;100.00;96335.28;4968582;28;20569;-81
2021/12/10 12:35:24;;;;;;;4.65;2.78;;;;;;;7.82;100.00;96309.94;4952959;28;20027;-81
2021/12/10 12:37:50;;;;;;;2.97;2.58;;;;;;;7.83;100.00;96301.00;4943466;28;20503;-80
2021/12/10 12:40:15;;;;;;;9.35;3.47;;;;;;;7.81;100.00;96294.94;4952481;29;20027;-80
2021/12/10 12:42:46;;;;;;;5.07;3.10;;;;;;;7.77;100.00;96274.81;4925892;29;20047;-81
2021/12/10 12:45:24;;;;;;;6.35;3.42;;;;;;;7.84;100.00;96308.03;4939779;29;20069;-81
2021/12/10 12:47:52;;;;;;;7.95;5.18;;;;;;;7.81;100.00;96292.28;4949945;29;20445;-80
2021/12/10 12:50:24;;;;;;;6.88;4.45;;;;;;;7.83;100.00;96274.38;4951938;29;20019;-80
2021/12/10 12:52:51;;;;;;;3.30;2.33;;;;;;;7.59;100.00;96284.09;4938521;29;20035;-81
2021/12/10 12:55:26;;;;;;;8.98;3.65;;;;;;;7.30;100.00;96311.88;4936610;29;20031;-81
2021/12/10 12:57:55;;;;;;;12.05;6.15;;;;;;;7.12;100.00;96302.50;4940454;28;20035;-81
2021/12/10 13:00:23;;;;;;;16.38;6.05;;;;;;;7.13;100.00;96294.44;4950663;29;20027;-81
2021/12/10 13:02:52;;;;;;;7.30;4.50;;;;;;;7.03;100.00;96275.59;4959709;28;20027;-80
2021/12/10 13:05:53;;;;;;;21.38;4.25;;;;;;;7.08;100.00;96292.06;4967145;28;20133;-80
2021/12/10 13:08:28;;;;;;;4.45;2.65;;;;;;;7.17;100.00;96287.09;4922825;29;20107;-82
2021/12/10 13:11:22;;;;;;;3.63;2.65;;;;;;;6.98;100.00;96288.31;4908876;29;20036;-82
2021/12/10 13:14:02;;;;;;;3.85;3.03;;;;;;;6.87;100.00;96280.25;4922252;29;20030;-83
2021/12/10 13:16:40;;;;;;;4.40;3.85;;;;;;;6.93;100.00;96293.09;4948591;29;20454;-80
2021/12/10 13:19:08;;;;;;;8.80;3.78;;;;;;;6.98;100.00;96306.94;4932667;29;20028;-81
2021/12/10 13:21:35;;;;;;;3.55;2.97;;;;;;;7.05;100.00;96308.22;4949143;28;20024;-79
2021/12/10 13:24:01;;;;;;;2.28;2.08;;;;;;;6.86;100.00;96294.47;4948676;29;20039;-80
2021/12/10 13:26:27;;;;;;;5.55;3.15;;;;;;;6.86;100.00;96291.00;4932551;29;20039;-81
2021/12/10 13:28:52;;;;;;;3.92;2.60;;;;;;;7.00;100.00;96296.22;4920119;29;20039;-81
2021/12/10 13:31:21;;;;;;;5.68;3.33;;;;;;;7.11;100.00;96291.00;4929154;29;20517;-79
2021/12/10 13:33:47;;;;;;;2.60;2.17;;;;;;;7.26;100.00;96299.75;4931765;29;20042;-80
2021/12/10 13:38:58;;;;;;;9.50;4.35;;;;;;;7.26;100.00;96299.75;4932816;29;20027;-80
2021/12/10 13:41:27;;;;;;;29.50;13.35;;;;;;;7.36;100.00;96290.16;4922595;29;20032;-81
2021/12/10 13:44:06;;;;;;;18.30;10.60;;;;;;;7.53;100.00;96292.50;4953618;28;20027;-80
2021/12/10 13:46:34;;;;;;;17.85;7.15;;;;;;;7.59;100.00;96297.41;4939579;29;20086;-81
2021/12/10 13:49:06;;;;;;;2.63;2.42;;;;;;;7.68;100.00;96290.56;4930279;29;20042;-81
2021/12/10 13:51:34;;;;;;;9.88;5.55;;;;;;;7.66;100.00;96277.38;4941751;28;20047;-81
2021/12/10 13:54:29;;;;;;;14.88;6.07;;;;;;;7.70;100.00;96268.22;4932338;29;20038;-80
2021/12/10 13:57:02;;;;;;;12.43;4.80;;;;;;;7.72;100.00;96268.94;4929067;29;20032;-80
2021/12/10 13:59:30;;;;;;;17.08;4.22;;;;;;;7.70;100.00;96270.03;4955692;28;20059;-81
2021/12/10 14:01:59;;;;;;;4.57;2.90;;;;;;;7.57;100.00;96262.91;4931928;29;20140;-81
2021/12/10 14:04:32;;;;;;;2.58;2.10;;;;;;;7.57;100.00;96275.34;4932616;29;20082;-80
2021/12/10 14:07:13;;;;;;;4.50;3.78;;;;;;;7.52;100.00;96289.00;4951708;28;20034;-81
2021/12/10 14:09:43;;;;;;;2.38;2.17;;;;;;;7.24;100.00;96269.75;4934391;29;20036;-80
2021/12/10 14:12:14;;;;;;;3.72;3.17;;;;;;;7.30;100.00;96267.50;4966881;28;20046;-80
2021/12/10 14:14:49;;;;;;;6.05;2.83;;;;;;;7.15;100.00;96273.03;4950747;28;20119;-80
2021/12/10 14:17:24;;;;;;;6.10;3.10;;;;;;;6.96;100.00;96265.47;4950431;28;20047;-80
2021/12/10 14:19:51;;;;;;;7.07;3.58;;;;;;;6.80;100.00;96272.81;4919462;29;20040;-81
2021/12/10 14:22:54;;;;;;;5.68;3.97;;;;;;;6.71;100.00;96286.66;4900318;29;20064;-80
2021/12/10 14:25:20;;;;;;;3.95;2.88;;;;;;;6.73;100.00;96280.34;4934895;29;20115;-81
2021/12/10 14:27:56;;;;;;;4.95;3.72;;;;;;;6.69;100.00;96281.47;4934530;29;20490;-81
2021/12/10 14:30:45;;;;;;;13.73;5.30;;;;;;;6.70;100.00;96280.53;4913954;29;20094;-80
2021/12/10 14:33:17;;;;;;;15.13;5.65;;;;;;;6.72;100.00;96280.41;4939452;29;20078;-81
2021/12/10 14:35:50;;;;;;;7.68;6.07;;;;;;;6.76;100.00;96279.25;4913396;29;20036;-81
2021/12/10 14:38:16;;;;;;;7.28;4.82;;;;;;;6.66;100.00;96257.78;4934813;29;20095;-80
2021/12/10 14:40:52;;;;;;;12.55;6.28;;;;;;;6.73;100.00;96274.16;4919011;29;20039;-81
2021/12/10 14:43:28;;;;;;;7.90;5.68;;;;;;;6.76;100.00;96277.47;4921249;29;20035;-81
2021/12/10 14:46:00;;;;;;;9.77;6.72;;;;;;;6.78;100.00;96275.53;4954840;29;20078;-81
2021/12/10 14:48:26;;;;;;;10.55;6.72;;;;;;;6.75;100.00;96256.28;4938298;29;20031;-79
2021/12/10 14:51:12;;;;;;;18.08;7.30;;;;;;;6.80;100.00;96283.44;4954352;28;20039;-80
2021/12/10 14:53:41;;;;;;;12.00;8.48;;;;;;;6.72;100.00;96283.94;4946418;29;20023;-81
2021/12/10 14:56:16;;;;;;;14.02;8.43;;;;;;;6.72;100.00;96293.69;4922670;29;20027;-81
2021/12/10 14:59:02;;;;;;;8.75;6.35;;;;;;;6.60;100.00;96276.78;4938582;29;20031;-80
2021/12/10 15:01:28;;;;;;;14.25;9.02;;;;;;;6.66;100.00;96289.66;4922420;29;20040;-80
2021/12/10 15:03:55;;;;;;;17.65;8.18;;;;;;;6.63;100.00;96289.00;4919400;29;20038;-81
2021/12/10 15:06:21;;;;;;;7.13;5.43;;;;;;;6.66;100.00;96287.00;4923972;29;20039;-81
2021/12/10 15:09:08;;;;;;;7.68;4.80;;;;;;;6.67;100.00;96285.19;4934835;29;20038;-81
2021/12/10 15:11:48;;;;;;;18.95;11.50;;;;;;;6.58;100.00;96284.00;4938605;29;20035;-82
2021/12/10 15:14:19;;;;;;;20.15;9.45;;;;;;;6.57;100.00;96287.63;4922564;29;20062;-82
2021/12/10 15:16:48;;;;;;;20.07;7.70;;;;;;;6.54;100.00;96285.16;4934721;29;20036;-81
2021/12/10 15:19:35;;;;;;;8.35;4.57;;;;;;;6.50;100.00;96299.59;4903937;29;20575;-80
2021/12/10 15:22:05;;;;;;;6.70;5.05;;;;;;;6.44;100.00;96316.78;4900083;29;20107;-81
2021/12/10 15:24:43;;;;;;;9.07;5.22;;;;;;;6.37;100.00;96322.56;4915638;29;20118;-81
2021/12/10 15:27:22;;;;;;;7.88;4.20;;;;;;;6.40;100.00;96333.00;4923773;29;20039;-88
2021/12/10 15:29:57;;;;;;;8.00;5.22;;;;;;;6.31;100.00;96345.06;4907788;29;20040;-88
2021/12/10 15:32:24;;;;;;;10.45;5.35;;;;;;;6.27;100.00;96329.47;4923911;29;20023;-87
2021/12/10 15:34:56;;;;;;;9.13;3.72;;;;;;;6.31;100.00;96336.25;4917051;29;20028;-89
2021/12/10 15:37:25;;;;;;;5.82;3.67;;;;;;;6.36;100.00;96344.78;4902630;29;20051;-88
2021/12/10 15:39:55;;;;;;;12.32;6.85;;;;;;;6.35;100.00;96340.41;4914752;29;20411;-89
2021/12/10 15:42:23;;;;;;;7.07;3.63;;;;;;;6.37;100.00;96343.81;4930419;29;20040;-87
2021/12/10 15:44:49;;;;;;;10.07;6.80;;;;;;;6.22;100.00;96329.72;4882740;29;20087;-87
2021/12/10 15:47:16;;;;;;;18.55;7.25;;;;;;;6.29;100.00;96339.03;4899397;29;20115;-88
2021/12/10 15:49:42;;;;;;;12.30;6.22;;;;;;;6.30;100.00;96339.88;4887001;29;20466;-89
2021/12/10 15:52:12;;;;;;;19.08;8.75;;;;;;;6.38;100.00;96359.66;4898556;29;20543;-87
2021/12/10 15:54:42;;;;;;;12.80;5.68;;;;;;;6.39;100.00;96357.88;4907238;29;20043;-87
2021/12/10 15:57:12;;;;;;;6.68;4.97;;;;;;;6.44;100.00;96363.72;4902002;29;20094;-88
2021/12/10 15:59:44;;;;;;;11.25;5.90;;;;;;;6.55;100.00;96371.88;4926425;29;20104;-87
2021/12/10 16:02:11;;;;;;;7.97;5.07;;;;;;;6.59;100.00;96372.50;4914457;29;20096;-88
2021/12/10 16:04:42;;;;;;;5.68;3.97;;;;;;;6.55;100.00;96371.88;4897705;29;20498;-86
2021/12/10 16:07:21;;;;;;;9.93;5.35;;;;;;;6.59;100.00;96388.44;4901368;29;20472;-89
2021/12/10 16:09:49;;;;;;;19.00;7.40;;;;;;;6.57;100.00;96396.50;4917196;29;20032;-90
2021/12/10 16:12:17;;;;;;;15.38;9.73;;;;;;;6.61;100.00;96413.97;4910374;29;20402;-89
2021/12/10 16:14:44;;;;;;;33.22;12.07;;;;;;;6.49;100.00;96430.69;4910778;29;20028;-89
2021/12/10 16:17:14;;;;;;;14.80;9.27;;;;;;;6.49;100.00;96436.00;4900647;29;20038;-89
2021/12/10 16:19:41;;;;;;;24.73;13.18;;;;;;;6.36;100.00;96414.69;4898965;29;20058;-88
2021/12/10 16:22:17;;;;;;;21.80;6.93;;;;;;;6.39;100.00;96422.47;4917624;29;20047;-88
2021/12/10 16:24:50;;;;;;;8.10;5.53;;;;;;;6.45;100.00;96416.75;4902559;29;20028;-89
2021/12/10 16:27:38;;;;;;;7.78;6.35;;;;;;;6.34;100.00;96421.03;4901347;29;20027;-88
2021/12/10 16:30:26;;;;;;;21.33;5.80;;;;;;;6.42;100.00;96421.41;4901389;29;20071;-88
2021/12/10 16:32:54;;;;;;;10.20;5.65;;;;;;;6.37;100.00;96400.44;4917848;29;20066;-89
2021/12/10 16:35:24;;;;;;;5.10;4.38;;;;;;;6.46;100.00;96393.72;4903932;29;20042;-89
2021/12/10 16:37:51;;;;;;;8.77;5.30;;;;;;;6.43;100.00;96420.44;4906903;29;20066;-89
2021/12/10 16:40:21;;;;;;;8.95;5.07;;;;;;;6.26;100.00;96396.75;4920982;29;20112;-87
2021/12/10 16:43:01;;;;;;;10.27;4.72;;;;;;;6.28;100.00;96394.84;4897332;29;20028;-78
2021/12/10 16:45:28;;;;;;;5.70;3.30;;;;;;;6.24;100.00;96375.66;4915044;29;20031;-79
2021/12/10 16:47:54;;;;;;;4.05;3.03;;;;;;;6.32;100.00;96381.31;4895598;29;20508;-80
2021/12/10 16:50:24;;;;;;;7.15;4.35;;;;;;;6.35;100.00;96370.47;4914901;29;20035;-78
2021/12/10 16:52:51;;;;;;;4.82;3.53;;;;;;;6.38;100.00;96375.59;4905008;29;20381;-79
2021/12/10 16:55:24;;;;;;;3.22;2.78;;;;;;;6.38;100.00;96374.75;4896633;29;20451;-79
2021/12/10 16:57:54;;;;;;;9.75;4.85;;;;;;;6.31;100.00;96371.63;4907240;29;20032;-91
2021/12/10 17:00:25;;;;;;;13.82;5.82;;;;;;;6.34;100.00;96383.84;4903185;29;20556;-85
2021/12/10 17:02:53;;;;;;;4.03;3.10;;;;;;;6.30;100.00;96377.03;4912188;29;20536;-80